Time;durP1;ratioP1;P1;durP2;ratioP2;P2;SDS_P1;SDS_P2;PMS_P1;PMS_P2;Temp;Humidity;BMP_temperature;BMP_pressure;BME280_temperature;BME280_humidity;BME280_pressure;Samples;Min_cycle;Max_cycle;Signal;HPM_P1;HPM_P2
2024/03/08 00:01:31;;;;;;;10.87;7.33;;;;;;;-0.58;100.00;102092.13;5034330;28;20117;-69
2024/03/08 00:03:57;;;;;;;9.47;6.77;;;;;;;-0.69;100.00;102069.84;5033664;28;20384;-65
2024/03/08 00:06:24;;;;;;;10.67;7.00;;;;;;;-0.78;100.00;102051.91;5035994;28;20822;-67
2024/03/08 00:08:50;;;;;;;10.77;7.23;;;;;;;-0.54;100.00;102091.97;5032079;28;20075;-69
2024/03/08 00:11:16;;;;;;;9.03;6.80;;;;;;;-0.58;100.00;102082.50;5015703;28;20623;-68
2024/03/08 00:13:42;;;;;;;12.77;7.47;;;;;;;-0.53;100.00;102090.22;5033459;28;20257;-68
2024/03/08 00:16:09;;;;;;;10.40;8.07;;;;;;;-0.53;100.00;102082.38;5032696;28;20037;-66
2024/03/08 00:18:35;;;;;;;12.37;7.57;;;;;;;-0.71;100.00;102057.75;5032994;28;20037;-67
2024/03/08 00:21:00;;;;;;;14.27;6.93;;;;;;;-0.52;100.00;102081.44;5032465;28;20683;-70
2024/03/08 00:23:26;;;;;;;14.30;8.37;;;;;;;-0.49;100.00;102084.81;5032940;28;20038;-68
2024/03/08 00:25:51;;;;;;;9.73;6.07;;;;;;;-0.48;100.00;102080.41;5030985;28;20481;-68
2024/03/08 00:28:18;;;;;;;10.63;8.40;;;;;;;-0.53;100.00;102075.38;5033674;28;20076;-69
2024/03/08 00:30:45;;;;;;;9.47;6.20;;;;;;;-0.72;100.00;102048.19;5033326;28;20040;-68
2024/03/08 00:33:10;;;;;;;15.67;7.03;;;;;;;-0.66;100.00;102064.50;5032101;28;20280;-68
2024/03/08 00:35:36;;;;;;;9.17;7.37;;;;;;;-0.54;100.00;102086.75;5033031;28;20268;-67
2024/03/08 00:38:02;;;;;;;6.97;6.13;;;;;;;-0.68;100.00;102060.25;5032960;28;20184;-68
2024/03/08 00:40:28;;;;;;;9.43;6.53;;;;;;;-0.52;100.00;102084.91;5032621;28;20358;-69
2024/03/08 00:42:54;;;;;;;8.57;6.67;;;;;;;-0.67;100.00;102054.09;5033340;28;20044;-70
2024/03/08 00:45:19;;;;;;;11.37;6.83;;;;;;;-0.47;100.00;102080.34;5032925;28;20264;-68
2024/03/08 00:47:45;;;;;;;8.20;6.43;;;;;;;-0.39;100.00;102083.50;5032337;28;20033;-68
2024/03/08 00:50:11;;;;;;;10.53;6.57;;;;;;;-0.55;100.00;102061.50;5033169;28;20037;-69
2024/03/08 00:52:37;;;;;;;10.97;6.90;;;;;;;-0.43;100.00;102070.63;5032891;28;20067;-65
2024/03/08 00:55:03;;;;;;;11.67;8.60;;;;;;;-0.47;100.00;102072.50;5034452;28;20715;-66
2024/03/08 00:57:29;;;;;;;9.17;7.13;;;;;;;-0.60;100.00;102037.25;5032920;28;20041;-66
2024/03/08 00:59:56;;;;;;;12.63;7.17;;;;;;;-0.37;100.00;102065.13;5032559;28;20275;-67
2024/03/08 01:02:23;;;;;;;10.93;6.97;;;;;;;-0.40;100.00;102079.19;5032120;28;20049;-67
2024/03/08 01:04:49;;;;;;;10.70;7.67;;;;;;;-0.58;100.00;102061.59;5032007;28;20291;-69
2024/03/08 01:07:15;;;;;;;14.40;7.33;;;;;;;-0.71;100.00;102034.19;5031859;28;20291;-67
2024/03/08 01:09:40;;;;;;;9.27;7.30;;;;;;;-0.58;100.00;102058.13;5031857;28;20265;-69
2024/03/08 01:12:07;;;;;;;13.13;7.77;;;;;;;-0.46;100.00;102075.97;5031148;28;20287;-68
2024/03/08 01:14:33;;;;;;;8.50;7.10;;;;;;;-0.47;100.00;102077.75;5032563;28;20383;-67
2024/03/08 01:16:59;;;;;;;11.90;7.43;;;;;;;-0.47;100.00;102077.75;5032359;28;20272;-67
2024/03/08 01:19:25;;;;;;;11.03;7.33;;;;;;;-0.44;100.00;102082.84;5034566;28;20287;-65
2024/03/08 01:21:51;;;;;;;8.67;6.83;;;;;;;-0.51;100.00;102063.06;5039314;28;20171;-67
2024/03/08 01:24:17;;;;;;;8.60;6.80;;;;;;;-0.39;100.00;102066.97;5035619;28;20179;-68
2024/03/08 01:26:43;;;;;;;10.87;7.20;;;;;;;-0.61;100.00;102035.53;5034463;28;20315;-67
2024/03/08 01:29:10;;;;;;;8.50;6.37;;;;;;;-0.41;100.00;102085.34;5032071;28;20081;-70
2024/03/08 01:31:38;;;;;;;8.90;6.23;;;;;;;-0.40;100.00;102079.19;5031731;28;20276;-67
2024/03/08 01:34:04;;;;;;;10.27;7.13;;;;;;;-0.39;100.00;102073.03;5031790;28;20267;-66
2024/03/08 01:36:30;;;;;;;8.53;6.70;;;;;;;-0.40;100.00;102073.97;5031681;28;20409;-67
2024/03/08 01:38:55;;;;;;;7.20;5.90;;;;;;;-0.52;100.00;102045.66;5031619;28;20067;-66
2024/03/08 01:41:21;;;;;;;10.80;6.67;;;;;;;-0.85;100.00;101985.06;5034456;28;20048;-69
2024/03/08 01:43:47;;;;;;;8.57;6.07;;;;;;;-0.58;100.00;102045.03;5033678;28;20041;-69
2024/03/08 01:46:17;;;;;;;9.50;6.70;;;;;;;-0.57;100.00;102058.09;5035631;28;20728;-69
2024/03/08 01:48:44;;;;;;;8.57;6.70;;;;;;;-0.58;100.00;102048.50;5036351;28;20041;-69
2024/03/08 01:51:11;;;;;;;8.27;5.90;;;;;;;-0.60;100.00;102042.47;5034078;28;20296;-68
2024/03/08 01:53:38;;;;;;;7.90;6.15;;;;;;;-0.39;100.00;102070.44;5032634;28;20359;-66
2024/03/08 01:56:05;;;;;;;9.20;6.63;;;;;;;-0.41;100.00;102061.78;5033476;28;20037;-69
2024/03/08 01:58:32;;;;;;;9.63;6.70;;;;;;;-0.29;100.00;102068.28;5033173;28;20373;-68
2024/03/08 02:00:59;;;;;;;8.40;5.93;;;;;;;-0.27;100.00;102070.88;5033303;28;20268;-69
2024/03/08 02:03:25;;;;;;;8.57;7.23;;;;;;;-0.58;100.00;102019.72;5031470;28;20272;-69
2024/03/08 02:05:51;;;;;;;6.23;4.83;;;;;;;-0.58;100.00;102014.47;5029666;28;20267;-67
2024/03/08 02:08:17;;;;;;;8.00;5.23;;;;;;;-0.29;100.00;102049.13;5031125;28;20468;-70
2024/03/08 02:10:47;;;;;;;6.47;5.27;;;;;;;-0.35;100.00;102043.22;5029998;28;20691;-69
2024/03/08 02:13:13;;;;;;;8.87;5.37;;;;;;;-0.36;100.00;102044.13;5031253;28;20272;-68
2024/03/08 02:15:50;;;;;;;7.07;5.80;;;;;;;-0.25;100.00;102058.56;5031967;28;20299;-67
2024/03/08 02:18:36;;;;;;;6.83;5.53;;;;;;;-0.40;100.00;102049.56;5030117;28;20072;-66
2024/03/08 02:21:03;;;;;;;8.40;5.40;;;;;;;-0.31;100.00;102057.03;5030522;28;20766;-68
2024/03/08 02:23:29;;;;;;;7.57;5.53;;;;;;;-0.28;100.00;102063.94;5031050;28;20683;-68
2024/03/08 02:25:57;;;;;;;10.30;6.17;;;;;;;-0.37;100.00;102058.13;5030900;28;20759;-69
2024/03/08 02:28:25;;;;;;;7.17;5.17;;;;;;;-0.42;100.00;102052.22;5030762;28;20300;-70
2024/03/08 02:30:54;;;;;;;7.80;5.72;;;;;;;-0.32;100.00;102064.03;5036551;28;20411;-67
2024/03/08 02:33:20;;;;;;;7.43;5.47;;;;;;;-0.55;100.00;102030.09;5035571;28;20053;-67
2024/03/08 02:35:46;;;;;;;9.00;5.57;;;;;;;-0.32;100.00;102058.78;5034880;28;20638;-68
2024/03/08 02:38:13;;;;;;;7.40;5.93;;;;;;;-0.46;100.00;102037.56;5034691;28;20239;-67
2024/03/08 02:40:38;;;;;;;8.47;5.83;;;;;;;-0.29;100.00;102057.81;5034438;28;20037;-69
2024/03/08 02:43:04;;;;;;;7.70;5.00;;;;;;;-0.26;100.00;102068.19;5034372;28;20402;-66
2024/03/08 02:45:30;;;;;;;6.23;5.10;;;;;;;-0.37;100.00;102050.28;5034596;28;20167;-69
2024/03/08 02:47:56;;;;;;;10.17;5.40;;;;;;;-0.42;100.00;102044.38;5034564;28;20394;-67
2024/03/08 02:50:22;;;;;;;7.63;5.60;;;;;;;-0.45;100.00;102041.88;5034658;28;20807;-67
2024/03/08 02:52:48;;;;;;;8.07;5.73;;;;;;;-0.41;100.00;102035.63;5034244;28;20040;-66
2024/03/08 02:55:16;;;;;;;8.67;5.80;;;;;;;-0.51;100.00;102020.34;5034179;28;20296;-67
2024/03/08 02:57:43;;;;;;;7.20;5.87;;;;;;;-0.32;100.00;102056.19;5034085;28;20361;-67
2024/03/08 03:00:10;;;;;;;5.53;4.93;;;;;;;-0.32;100.00;102064.03;5032518;28;20303;-68
2024/03/08 03:02:37;;;;;;;8.07;6.07;;;;;;;-0.31;100.00;102075.34;5034370;28;20037;-68
2024/03/08 03:05:05;;;;;;;7.37;6.33;;;;;;;-0.41;100.00;102056.56;5034159;28;20283;-67
2024/03/08 03:07:34;;;;;;;6.82;5.45;;;;;;;-0.33;100.00;102057.09;5034369;28;20299;-69
2024/03/08 03:10:00;;;;;;;12.38;6.50;;;;;;;-0.41;100.00;102043.47;5033195;28;20033;-70
2024/03/08 03:12:27;;;;;;;6.73;4.77;;;;;;;-0.34;100.00;102062.38;5032669;28;20040;-66
2024/03/08 03:14:53;;;;;;;7.80;5.17;;;;;;;-0.32;100.00;102056.19;5032646;28;20346;-70
2024/03/08 03:17:19;;;;;;;5.80;4.67;;;;;;;-0.32;100.00;102053.56;5035063;28;20747;-70
2024/03/08 03:19:46;;;;;;;6.47;4.80;;;;;;;-0.18;100.00;102065.25;5033119;28;20124;-66
2024/03/08 03:22:12;;;;;;;7.20;5.43;;;;;;;-0.18;100.00;102070.50;5033723;28;20268;-69
2024/03/08 03:24:38;;;;;;;8.07;4.80;;;;;;;-0.16;100.00;102082.59;5034227;28;20268;-69
2024/03/08 03:27:10;;;;;;;10.50;5.60;;;;;;;-0.57;100.00;102007.50;5033040;28;20370;-67
2024/03/08 03:29:42;;;;;;;7.83;5.87;;;;;;;-0.29;100.00;102055.19;5032204;28;20294;-69
2024/03/08 03:32:08;;;;;;;5.87;4.73;;;;;;;-0.27;100.00;102061.25;5033753;28;20288;-69
2024/03/08 03:34:37;;;;;;;7.60;5.60;;;;;;;-0.18;100.00;102071.34;5034814;28;20280;-69
2024/03/08 03:37:03;;;;;;;6.35;4.75;;;;;;;-0.23;100.00;102062.84;5032318;28;20669;-68
2024/03/08 03:39:34;;;;;;;7.23;4.93;;;;;;;-0.07;100.00;102087.47;5033539;28;20072;-68
2024/03/08 03:42:01;;;;;;;10.93;6.27;;;;;;;-0.28;100.00;102048.22;5032926;28;20363;-69
2024/03/08 03:44:28;;;;;;;6.63;5.10;;;;;;;-0.20;100.00;102067.09;5032017;28;20306;-69
2024/03/08 03:46:54;;;;;;;6.57;4.17;;;;;;;-0.13;100.00;102076.41;5033216;28;20268;-70
2024/03/08 03:49:20;;;;;;;5.60;4.03;;;;;;;-0.16;100.00;102085.22;5034261;28;20334;-67
2024/03/08 03:51:46;;;;;;;5.60;4.50;;;;;;;-0.21;100.00;102086.34;5033550;28;20037;-71
2024/03/08 03:54:12;;;;;;;6.53;4.10;;;;;;;-0.28;100.00;102070.03;5031785;28;20060;-68
2024/03/08 03:56:39;;;;;;;4.67;3.63;;;;;;;-0.22;100.00;102089.88;5033308;28;20363;-69
2024/03/08 03:59:06;;;;;;;4.57;4.03;;;;;;;-0.26;100.00;102081.28;5033099;28;20279;-68
2024/03/08 04:01:34;;;;;;;5.63;4.27;;;;;;;-0.25;100.00;102087.38;5033124;28;20764;-67
2024/03/08 04:04:00;;;;;;;4.63;3.70;;;;;;;-0.22;100.00;102090.72;5032844;28;20671;-67
2024/03/08 04:06:26;;;;;;;3.40;3.10;;;;;;;-0.33;100.00;102070.19;5034069;28;20029;-68
2024/03/08 04:08:51;;;;;;;3.90;3.53;;;;;;;-0.38;100.00;102060.81;5033277;28;20083;-69
2024/03/08 04:11:17;;;;;;;3.40;3.10;;;;;;;-0.34;100.00;102059.78;5031615;28;20512;-68
2024/03/08 04:13:43;;;;;;;4.33;3.33;;;;;;;-0.20;100.00;102081.03;5032944;28;20025;-69
2024/03/08 04:16:11;;;;;;;3.90;3.50;;;;;;;-0.34;100.00;102059.78;5032893;28;20509;-69
2024/03/08 04:18:37;;;;;;;3.93;3.53;;;;;;;-0.37;100.00;102049.44;5032851;28;20264;-69
2024/03/08 04:21:06;;;;;;;4.10;3.30;;;;;;;-0.46;100.00;102050.66;5031316;28;20283;-67
2024/03/08 04:23:35;;;;;;;4.55;3.30;;;;;;;-0.40;100.00;102062.63;5032694;28;20272;-67
2024/03/08 04:26:04;;;;;;;5.53;3.63;;;;;;;-0.52;100.00;102032.59;5032513;28;20493;-68
2024/03/08 04:28:31;;;;;;;4.13;3.13;;;;;;;-0.24;100.00;102081.22;5033008;28;20410;-67
2024/03/08 04:30:59;;;;;;;4.30;3.13;;;;;;;-0.44;100.00;102046.22;5032935;28;20041;-67
2024/03/08 04:33:26;;;;;;;4.63;3.47;;;;;;;-0.27;100.00;102081.34;5032413;28;20275;-71
2024/03/08 04:35:51;;;;;;;5.17;4.20;;;;;;;-0.59;100.00;102027.63;5032367;28;20041;-68
2024/03/08 04:38:17;;;;;;;4.37;3.77;;;;;;;-0.28;100.00;102067.41;5033700;28;20268;-69
2024/03/08 04:40:43;;;;;;;5.10;3.30;;;;;;;-0.15;100.00;102080.84;5031252;28;20103;-68
2024/03/08 04:43:10;;;;;;;3.83;3.43;;;;;;;-0.12;100.00;102081.56;5032108;28;20509;-69
2024/03/08 04:45:37;;;;;;;4.40;3.53;;;;;;;-0.23;100.00;102072.44;5030838;28;20140;-67
2024/03/08 04:48:02;;;;;;;3.93;3.53;;;;;;;-0.21;100.00;102083.72;5031867;28;20342;-69
2024/03/08 04:50:28;;;;;;;4.27;3.27;;;;;;;-0.72;100.00;102014.19;5031941;28;20296;-68
2024/03/08 04:52:55;;;;;;;4.40;3.47;;;;;;;-0.36;100.00;102061.59;5032437;28;20041;-68
2024/03/08 04:55:21;;;;;;;4.13;3.30;;;;;;;-0.35;100.00;102064.16;5032375;28;20744;-67
2024/03/08 04:57:49;;;;;;;3.53;3.17;;;;;;;-0.26;100.00;102076.06;5030684;28;20296;-68
2024/03/08 05:00:16;;;;;;;6.60;2.90;;;;;;;-0.21;100.00;102086.34;5031665;28;20291;-68
2024/03/08 05:02:41;;;;;;;5.23;3.67;;;;;;;-0.36;100.00;102054.59;5031809;28;20044;-68
2024/03/08 05:05:12;;;;;;;3.90;3.60;;;;;;;-0.13;100.00;102089.50;5031204;28;20280;-67
2024/03/08 05:07:39;;;;;;;7.50;4.50;;;;;;;-0.28;100.00;102066.56;5031687;28;20805;-69
2024/03/08 05:10:06;;;;;;;4.23;3.03;;;;;;;-0.09;100.00;102104.16;5033041;28;20314;-69
2024/03/08 05:12:35;;;;;;;3.93;3.07;;;;;;;-0.23;100.00;102062.84;5030121;28;20296;-68
2024/03/08 05:15:00;;;;;;;3.78;3.10;;;;;;;-0.31;100.00;102050.03;5030723;28;20276;-68
2024/03/08 05:17:26;;;;;;;5.67;3.00;;;;;;;-0.14;100.00;102088.63;5031749;28;20040;-68
2024/03/08 05:19:51;;;;;;;4.03;3.50;;;;;;;-0.20;100.00;102090.66;5031224;28;20133;-69
2024/03/08 05:22:18;;;;;;;4.23;3.83;;;;;;;-0.33;100.00;102057.09;5031648;28;20041;-68
2024/03/08 05:24:44;;;;;;;3.30;3.00;;;;;;;-0.14;100.00;102098.25;5032158;28;20041;-68
2024/03/08 05:27:09;;;;;;;3.17;2.80;;;;;;;-0.17;100.00;102099.22;5031694;28;20342;-67
2024/03/08 05:29:35;;;;;;;5.70;3.57;;;;;;;-0.17;100.00;102104.47;5031298;28;20044;-69
2024/03/08 05:32:02;;;;;;;3.97;3.13;;;;;;;-0.25;100.00;102092.59;5031248;28;20171;-69
2024/03/08 05:34:28;;;;;;;3.40;2.57;;;;;;;-0.13;100.00;102110.44;5031389;28;20048;-68
2024/03/08 05:36:54;;;;;;;10.83;3.77;;;;;;;-0.34;100.00;102086.78;5031697;28;20369;-68
2024/03/08 05:39:20;;;;;;;5.03;3.30;;;;;;;-0.34;100.00;102080.72;5031700;28;20275;-70
2024/03/08 05:41:46;;;;;;;3.70;3.07;;;;;;;-0.49;100.00;102071.72;5031849;28;20038;-70
2024/03/08 05:44:12;;;;;;;3.47;3.17;;;;;;;-0.27;100.00;102076.09;5029820;28;20037;-69
2024/03/08 05:46:39;;;;;;;5.30;3.43;;;;;;;-0.40;100.00;102050.41;5031043;28;20047;-67
2024/03/08 05:49:09;;;;;;;3.43;3.13;;;;;;;0.06;100.00;102114.03;5031080;28;20759;-69
2024/03/08 05:51:37;;;;;;;6.67;3.37;;;;;;;-0.11;100.00;102101.59;5027551;28;20279;-67
2024/03/08 05:54:05;;;;;;;3.60;3.10;;;;;;;-0.09;100.00;102118.09;5015623;28;20696;-67
2024/03/08 05:56:31;;;;;;;3.80;3.23;;;;;;;-0.09;100.00;102115.47;5012475;28;20273;-66
2024/03/08 05:59:00;;;;;;;4.27;3.30;;;;;;;-0.11;100.00;102112.06;5011855;28;20283;-69
2024/03/08 06:01:26;;;;;;;5.05;3.60;;;;;;;-0.19;100.00;102089.75;5011335;28;20289;-67
2024/03/08 06:03:56;;;;;;;3.33;2.90;;;;;;;-0.08;100.00;102105.84;5011148;28;20116;-67
2024/03/08 06:06:26;;;;;;;4.37;3.97;;;;;;;-0.16;100.00;102085.22;5016309;28;20354;-66
2024/03/08 06:08:52;;;;;;;3.73;3.17;;;;;;;0.06;100.00;102110.56;4998086;28;20301;-67
2024/03/08 06:11:20;;;;;;;3.27;2.97;;;;;;;0.12;100.00;102113.78;5015879;28;20283;-68
2024/03/08 06:13:46;;;;;;;4.13;3.27;;;;;;;0.19;100.00;102117.84;5014053;28;20298;-68
2024/03/08 06:16:12;;;;;;;7.93;3.90;;;;;;;0.05;100.00;102099.22;5015793;28;20364;-66
2024/03/08 06:18:39;;;;;;;3.40;3.10;;;;;;;0.12;100.00;102121.63;5048718;28;20406;-68
2024/03/08 06:21:05;;;;;;;5.60;3.30;;;;;;;-0.37;100.00;102039.81;5036267;28;20041;-70
2024/03/08 06:23:38;;;;;;;5.30;3.43;;;;;;;0.03;100.00;102095.81;5035107;28;20687;-68
2024/03/08 06:26:04;;;;;;;3.90;3.33;;;;;;;0.16;100.00;102104.88;5033736;28;20272;-66
2024/03/08 06:28:32;;;;;;;4.77;3.10;;;;;;;0.13;100.00;102112.84;5035459;28;20315;-69
2024/03/08 06:30:58;;;;;;;3.30;3.00;;;;;;;0.09;100.00;102132.25;5032850;28;20279;-66
2024/03/08 06:33:26;;;;;;;4.50;2.87;;;;;;;-0.17;100.00;102103.63;5034427;28;20276;-68
2024/03/08 06:35:52;;;;;;;6.10;3.47;;;;;;;-0.01;100.00;102136.13;5034791;28;20275;-67
2024/03/08 06:38:19;;;;;;;5.30;3.20;;;;;;;-0.46;100.00;102073.34;5034713;28;20363;-67
2024/03/08 06:40:47;;;;;;;5.60;3.20;;;;;;;-0.20;100.00;102104.59;5017024;28;20272;-70
2024/03/08 06:43:15;;;;;;;6.22;3.90;;;;;;;0.07;100.00;102141.06;5036515;28;20276;-69
2024/03/08 06:45:52;;;;;;;5.65;3.35;;;;;;;0.06;100.00;102137.59;5037520;28;20091;-68
2024/03/08 06:48:18;;;;;;;4.90;3.30;;;;;;;0.03;100.00;102122.03;5037010;28;20033;-67
2024/03/08 06:50:47;;;;;;;5.47;3.37;;;;;;;0.21;100.00;102144.81;5034795;28;20294;-67
2024/03/08 06:53:14;;;;;;;4.83;3.37;;;;;;;0.13;100.00;102131.19;5033237;28;20033;-66
2024/03/08 06:55:40;;;;;;;6.70;4.40;;;;;;;-0.50;100.00;102033.38;5032957;28;20723;-67
2024/03/08 06:58:10;;;;;;;3.77;3.40;;;;;;;-0.02;100.00;102111.69;5035205;28;20284;-66
2024/03/08 07:00:37;;;;;;;5.07;3.43;;;;;;;0.13;100.00;102139.06;5033545;28;20259;-68
2024/03/08 07:03:03;;;;;;;5.40;3.97;;;;;;;0.11;100.00;102140.03;5031872;28;20761;-70
2024/03/08 07:05:32;;;;;;;7.53;3.27;;;;;;;0.11;100.00;102146.13;5032775;28;20334;-69
2024/03/08 07:07:58;;;;;;;;;;;;;;;0.11;100.00;102129.56;5034149;28;20284;-68
2024/03/08 07:10:26;;;;;;;4.50;3.20;;;;;;;0.09;100.00;102142.72;5033503;28;19917;-67
2024/03/08 07:12:55;;;;;;;6.13;3.05;;;;;;;0.06;100.00;102142.84;5035849;28;20103;-69
2024/03/08 07:15:21;;;;;;;4.20;3.55;;;;;;;0.07;100.00;102141.94;5036948;28;20049;-67
2024/03/08 07:17:47;;;;;;;6.07;3.27;;;;;;;0.09;100.00;102145.34;5034148;28;20501;-71
2024/03/08 07:20:15;;;;;;;4.50;4.10;;;;;;;0.12;100.00;102145.22;5033963;28;20045;-68
2024/03/08 07:22:41;;;;;;;4.70;3.42;;;;;;;0.22;100.00;102148.31;5033664;28;20037;-69
2024/03/08 07:25:23;;;;;;;5.03;3.50;;;;;;;0.23;100.00;102135.13;5032733;28;20390;-69
2024/03/08 07:27:55;;;;;;;6.37;3.40;;;;;;;0.30;100.00;102141.00;5033674;28;20104;-68
2024/03/08 07:33:07;;;;;;;4.10;3.07;;;;;;;0.30;100.00;102136.63;5033876;28;20275;-71
2024/03/08 07:35:36;;;;;;;4.37;3.53;;;;;;;0.22;100.00;102116.84;5033623;28;20280;-69
2024/03/08 07:38:06;;;;;;;5.67;3.83;;;;;;;0.30;99.62;102120.88;5033412;28;20275;-77
2024/03/08 07:40:36;;;;;;;4.27;3.50;;;;;;;0.49;98.38;102151.56;5033305;28;20284;-73
2024/03/08 07:43:05;;;;;;;4.47;3.30;;;;;;;0.34;98.21;102133.88;5033315;28;20767;-71
2024/03/08 07:45:30;;;;;;;;;;;;;;;0.51;99.20;102147.09;5032384;28;20276;-70
2024/03/08 07:47:56;;;;;;;4.93;3.47;;;;;;;0.40;98.32;102130.97;5034384;28;19917;-70
2024/03/08 07:50:28;;;;;;;4.27;3.43;;;;;;;0.53;98.41;102156.59;5033186;28;20038;-70
2024/03/08 07:52:54;;;;;;;4.27;2.87;;;;;;;0.49;97.79;102155.03;5033000;28;20033;-71
2024/03/08 07:55:20;;;;;;;3.80;3.50;;;;;;;0.47;97.61;102141.13;5033716;28;20318;-70
2024/03/08 07:57:51;;;;;;;3.47;2.70;;;;;;;0.55;97.80;102146.91;5033219;28;20041;-70
2024/03/08 08:00:18;;;;;;;7.73;3.60;;;;;;;0.39;97.82;102103.06;5015331;28;20136;-69
2024/03/08 08:02:45;;;;;;;4.43;3.50;;;;;;;0.67;97.51;102150.78;5035457;28;20283;-70
2024/03/08 08:05:11;;;;;;;7.17;3.67;;;;;;;0.59;96.43;102110.94;5033376;28;20278;-69
2024/03/08 08:07:37;;;;;;;4.13;3.30;;;;;;;0.60;95.74;102115.28;5031824;28;20300;-72
2024/03/08 08:10:02;;;;;;;6.07;4.50;;;;;;;0.81;95.32;102148.41;5033098;28;20322;-71
2024/03/08 08:12:29;;;;;;;4.43;3.27;;;;;;;0.65;94.94;102115.91;5031872;28;20076;-74
2024/03/08 08:14:55;;;;;;;4.67;3.20;;;;;;;0.79;94.81;102150.25;5033242;28;20374;-70
2024/03/08 08:17:20;;;;;;;8.30;4.43;;;;;;;0.82;95.02;102152.75;5032911;28;20068;-67
2024/03/08 08:19:46;;;;;;;7.10;3.70;;;;;;;0.93;94.69;102155.78;5033122;28;20033;-72
2024/03/08 08:22:11;;;;;;;4.03;3.03;;;;;;;1.01;93.34;102146.72;5030563;28;20124;-70
2024/03/08 08:24:37;;;;;;;5.43;3.50;;;;;;;1.13;93.04;102154.88;5051811;28;20126;-70
2024/03/08 08:27:05;;;;;;;6.03;3.53;;;;;;;0.76;92.01;102068.25;5052101;28;20057;-67
2024/03/08 08:29:33;;;;;;;4.10;3.43;;;;;;;1.35;91.42;102170.53;5050878;28;20041;-67
2024/03/08 08:31:59;;;;;;;3.27;2.97;;;;;;;1.09;91.30;102136.72;5042602;28;20363;-67
2024/03/08 08:34:26;;;;;;;5.60;3.70;;;;;;;0.95;91.25;102133.88;5032647;28;20275;-67
2024/03/08 08:36:53;;;;;;;4.70;3.67;;;;;;;0.86;91.51;102146.44;5032803;28;20736;-69
2024/03/08 08:39:19;;;;;;;6.70;4.40;;;;;;;0.73;92.52;102142.66;5032300;28;20766;-67
2024/03/08 08:41:44;;;;;;;8.60;4.00;;;;;;;0.96;92.50;102167.06;5031802;28;20280;-69
2024/03/08 08:44:12;;;;;;;5.07;3.47;;;;;;;0.96;92.18;102173.16;5030573;28;20500;-67
2024/03/08 08:46:38;;;;;;;7.57;3.80;;;;;;;0.81;92.53;102148.41;5032190;28;20044;-68
2024/03/08 08:49:04;;;;;;;4.10;3.33;;;;;;;0.93;92.38;102153.16;5031759;28;20792;-68
2024/03/08 08:51:33;;;;;;;4.43;4.03;;;;;;;1.00;91.95;102164.22;5031276;28;20414;-70
2024/03/08 08:53:59;;;;;;;3.80;3.50;;;;;;;0.90;91.35;102141.94;5031764;28;20257;-68
2024/03/08 08:56:25;;;;;;;3.60;3.30;;;;;;;1.07;91.76;102156.94;5031573;28;20120;-69
2024/03/08 08:58:53;;;;;;;5.10;3.47;;;;;;;0.30;91.25;102036.19;5031902;28;20038;-71
2024/03/08 09:01:19;;;;;;;7.83;4.17;;;;;;;0.86;91.44;102141.19;5031476;28;20272;-73
2024/03/08 09:03:46;;;;;;;4.80;3.17;;;;;;;0.52;91.37;102099.84;5030483;28;20315;-70
2024/03/08 09:06:13;;;;;;;3.47;3.07;;;;;;;0.64;91.95;102161.41;5033967;28;21059;-70
2024/03/08 09:08:43;;;;;;;5.10;3.43;;;;;;;0.39;92.75;102138.00;5032435;28;20295;-72
2024/03/08 09:11:10;;;;;;;8.13;3.40;;;;;;;0.41;93.68;102146.63;5031687;28;20359;-72
2024/03/08 09:13:36;;;;;;;6.53;3.60;;;;;;;0.56;94.38;102153.00;5031504;28;20355;-71
2024/03/08 09:16:05;;;;;;;8.80;3.47;;;;;;;0.59;93.27;102126.69;5032126;28;20272;-69
2024/03/08 09:18:31;;;;;;;4.88;2.55;;;;;;;0.83;91.81;102157.06;5013785;28;20264;-69
2024/03/08 09:20:58;;;;;;;6.87;3.23;;;;;;;0.76;91.54;102124.16;5031762;28;20376;-70
2024/03/08 09:23:23;;;;;;;4.70;3.20;;;;;;;0.69;92.01;102093.91;5032166;28;20647;-69
2024/03/08 09:25:49;;;;;;;8.20;2.97;;;;;;;0.84;91.18;102114.19;5031427;28;20299;-70
2024/03/08 09:28:15;;;;;;;4.67;3.53;;;;;;;0.67;91.42;102082.63;5031619;28;20432;-69
2024/03/08 09:30:41;;;;;;;9.63;3.30;;;;;;;0.82;91.68;102092.41;5013311;28;20137;-71
2024/03/08 09:33:07;;;;;;;8.10;2.93;;;;;;;1.14;91.26;102126.88;5031169;28;20358;-68
2024/03/08 09:35:33;;;;;;;6.73;3.10;;;;;;;1.08;90.85;102119.28;5031532;28;20511;-69
2024/03/08 09:37:58;;;;;;;7.03;3.27;;;;;;;1.22;90.53;102116.91;5031681;28;20029;-69
2024/03/08 09:40:25;;;;;;;9.03;3.03;;;;;;;1.30;89.54;102100.78;5029974;28;20061;-72
2024/03/08 09:42:52;;;;;;;10.97;3.37;;;;;;;1.66;88.02;102127.09;5030312;28;20045;-69
2024/03/08 09:45:22;;;;;;;17.63;4.70;;;;;;;1.77;86.73;102141.44;5032881;28;20274;-72
2024/03/08 09:47:48;;;;;;;6.50;3.87;;;;;;;1.81;87.28;102143.00;5035428;28;20323;-70
2024/03/08 09:50:15;;;;;;;8.90;3.10;;;;;;;1.69;86.08;102116.44;5032125;28;20276;-72
2024/03/08 09:52:43;;;;;;;8.30;3.43;;;;;;;1.57;85.87;102099.50;5034560;28;20343;-68
2024/03/08 09:55:12;;;;;;;10.17;3.97;;;;;;;1.59;85.80;102095.03;5016837;28;20319;-66
2024/03/08 09:57:39;;;;;;;14.17;3.27;;;;;;;1.86;86.02;102150.66;5031278;28;20264;-68
2024/03/08 10:00:18;;;;;;;8.10;3.13;;;;;;;1.41;85.28;102075.75;5031168;28;20664;-67
2024/03/08 10:02:47;;;;;;;;;;;;;;;1.65;86.15;102154.28;5031717;28;20358;-70
2024/03/08 10:05:13;;;;;;;3.90;3.33;;;;;;;1.34;86.62;102131.22;5029945;28;19925;-70
2024/03/08 10:07:40;;;;;;;5.97;2.67;;;;;;;1.40;87.59;102134.41;5030792;28;20033;-70
2024/03/08 10:10:08;;;;;;;8.63;2.53;;;;;;;1.28;87.81;102111.38;5032353;28;20268;-69
2024/03/08 10:12:35;;;;;;;10.50;2.90;;;;;;;1.32;88.12;102112.91;5031345;28;20284;-73
2024/03/08 10:15:01;;;;;;;4.60;3.00;;;;;;;1.63;86.76;102148.25;5041187;28;20288;-70
2024/03/08 10:17:32;;;;;;;4.18;2.78;;;;;;;1.76;85.65;102144.16;5014042;28;20272;-69
2024/03/08 10:19:58;;;;;;;;;;;;;;;1.92;85.91;102155.63;5014328;28;20436;-69
2024/03/08 10:22:26;;;;;;;7.27;4.33;;;;;;;1.67;85.25;102081.53;5031070;28;19917;-68
2024/03/08 10:24:52;;;;;;;7.07;3.00;;;;;;;2.23;83.34;102148.88;5032680;28;20267;-67
2024/03/08 10:27:18;;;;;;;5.43;3.13;;;;;;;2.26;81.90;102125.94;5036007;28;20288;-69
2024/03/08 10:29:47;;;;;;;5.80;2.87;;;;;;;2.38;80.86;102138.47;5035162;28;20284;-71
2024/03/08 10:32:13;;;;;;;4.67;3.07;;;;;;;2.56;81.06;102149.84;5029624;28;21190;-70
2024/03/08 10:34:41;;;;;;;7.07;2.90;;;;;;;2.65;79.50;102144.13;5031072;28;20272;-71
2024/03/08 10:37:12;;;;;;;3.97;2.75;;;;;;;2.27;77.23;102076.81;5030953;28;20087;-69
2024/03/08 10:39:47;;;;;;;2.97;2.67;;;;;;;2.51;76.60;102132.59;5031359;28;20151;-67
2024/03/08 10:42:18;;;;;;;5.23;2.30;;;;;;;2.51;76.75;102128.19;5031194;28;20268;-67
2024/03/08 10:44:59;;;;;;;7.03;3.10;;;;;;;2.61;77.82;102129.44;5030777;28;20268;-67
2024/03/08 10:47:30;;;;;;;5.20;2.60;;;;;;;2.79;76.50;102149.53;5029682;28;20276;-70
2024/03/08 10:50:20;;;;;;;9.10;2.67;;;;;;;2.73;75.85;102128.81;5031294;28;20318;-68
2024/03/08 10:52:51;;;;;;;17.70;3.87;;;;;;;2.68;76.11;102122.06;5032440;28;20355;-67
2024/03/08 10:55:20;;;;;;;11.27;3.23;;;;;;;2.58;75.69;102111.16;5035275;28;20275;-69
2024/03/08 10:57:46;;;;;;;;;;;;;;;2.85;75.50;102147.50;5033861;28;20269;-69
2024/03/08 11:00:13;;;;;;;9.10;3.40;;;;;;;2.99;73.95;102151.13;5017579;28;19917;-72
2024/03/08 11:02:43;;;;;;;5.43;2.83;;;;;;;3.10;73.57;102137.41;5034648;28;20303;-68
2024/03/08 11:05:41;;;;;;;8.83;2.83;;;;;;;3.35;72.20;102148.34;5035731;28;20279;-71
2024/03/08 11:08:18;;;;;;;8.60;2.93;;;;;;;3.18;71.25;102150.16;5034727;28;20296;-73
2024/03/08 11:10:55;;;;;;;6.90;2.13;;;;;;;3.06;70.15;102146.41;5036163;28;20327;-72
2024/03/08 11:13:43;;;;;;;3.67;2.20;;;;;;;2.95;71.17;102148.75;5034725;28;20283;-69
2024/03/08 11:16:32;;;;;;;5.70;2.30;;;;;;;2.83;71.21;102146.72;5033986;28;20826;-69
2024/03/08 11:19:23;;;;;;;5.93;2.70;;;;;;;2.56;71.76;102107.75;5033906;28;20280;-70
2024/03/08 11:22:07;;;;;;;9.03;2.57;;;;;;;2.77;72.31;102118.97;5033356;28;20287;-67
2024/03/08 11:24:42;;;;;;;5.17;2.57;;;;;;;2.94;69.87;102111.06;5033861;28;20264;-70
2024/03/08 11:27:09;;;;;;;3.23;2.60;;;;;;;3.35;69.88;102143.06;5035374;28;20359;-66
2024/03/08 11:29:37;;;;;;;7.47;3.30;;;;;;;3.38;68.45;102136.78;5032322;28;20779;-69